URKK

Krasnodar International Airport

Krasnodar, Russian Federation
TAF URKK 220157Z 2203/2303 08003G08MPS CAVOK
Issued Valid From Valid To
Sep-22 @ 01:57 UTC
(2 hours ago)
Sep-22 @ 03:00 UTC
(39 minutes ago)
Sep-23 @ 03:00 UTC
(in 23 hours)
to
TAF URKK 220157Z 2203/2303 08003G08MPS CAVOK
Issued Sep-22 @ 01:57 UTC
(2 hours ago)
Valid From Sep-22 @ 03:00 UTC
(39 minutes ago)
Valid To Sep-23 @ 03:00 UTC
(in 23 hours)
-